Time;durP1;ratioP1;P1;durP2;ratioP2;P2;SDS_P1;SDS_P2;PMS_P1;PMS_P2;Temp;Humidity;BMP_temperature;BMP_pressure;BME280_temperature;BME280_humidity;BME280_pressure;Samples;Min_cycle;Max_cycle;Signal;HPM_P1;HPM_P2
2021/12/14 07:45:13;;;;;;;638.27;596.72;;;;;;;16.15;48.62;100456.16;1921805;72;28126;-76
2021/12/14 07:48:01;;;;;;;4.95;3.65;;;;;;;16.55;47.98;100462.92;1884064;75;29027;-68
2021/12/14 07:50:53;;;;;;;5.50;4.15;;;;;;;17.39;46.83;100465.03;1893182;75;28127;-69
2021/12/14 07:53:47;;;;;;;6.47;3.98;;;;;;;18.06;45.80;100460.25;1891373;75;28036;-69
2021/12/14 07:56:44;;;;;;;7.78;3.75;;;;;;;18.58;44.80;100472.05;1890901;75;28124;-68
2021/12/14 07:59:38;;;;;;;5.62;3.37;;;;;;;18.98;43.99;100459.89;1891561;75;28133;-68
2021/12/14 08:02:32;;;;;;;7.05;3.67;;;;;;;19.30;43.16;100455.92;1907796;74;27959;-69
2021/12/14 08:05:23;;;;;;;6.60;3.60;;;;;;;19.57;42.49;100459.87;1868665;75;28308;-69
2021/12/14 08:08:31;;;;;;;6.67;3.77;;;;;;;19.78;41.87;100454.45;1889756;75;28142;-69
2021/12/14 08:11:30;;;;;;;7.22;4.05;;;;;;;19.93;41.42;100448.41;1891569;75;28069;-69
2021/12/14 08:14:13;;;;;;;10.13;4.45;;;;;;;20.05;41.08;100446.86;1868787;75;28210;-69
2021/12/14 08:17:07;;;;;;;9.90;4.67;;;;;;;20.17;40.76;100456.73;1868536;76;28178;-69
2021/12/14 08:19:55;;;;;;;7.90;4.25;;;;;;;20.25;40.45;100446.58;1898658;75;28065;-69
2021/12/14 08:22:44;;;;;;;8.50;3.90;;;;;;;20.34;40.20;100439.09;1888678;75;28631;-69
2021/12/14 08:25:33;;;;;;;6.00;3.50;;;;;;;20.39;40.03;100450.27;1883794;75;28136;-71
2021/12/14 08:28:22;;;;;;;9.38;4.28;;;;;;;20.44;39.92;100459.53;1877338;75;28197;-69
2021/12/14 08:31:11;;;;;;;7.55;3.90;;;;;;;20.47;39.82;100465.11;1875937;75;28107;-69
2021/12/14 08:34:05;;;;;;;7.97;4.00;;;;;;;20.50;39.69;100453.81;1874387;75;28143;-69
2021/12/14 08:36:57;;;;;;;12.93;5.03;;;;;;;20.53;39.57;100457.52;1901920;75;28047;-69
2021/12/14 08:40:01;;;;;;;7.72;4.00;;;;;;;20.54;39.47;100460.05;1906020;74;28255;-69
2021/12/14 08:43:01;;;;;;;7.35;3.58;;;;;;;20.54;39.39;100465.50;1892145;75;28105;-69
2021/12/14 08:46:09;;;;;;;5.28;3.30;;;;;;;20.56;39.37;100463.95;1901530;74;28129;-69
2021/12/14 08:49:01;;;;;;;6.70;3.60;;;;;;;20.54;39.28;100458.67;1900962;74;28192;-69
2021/12/14 08:51:51;;;;;;;6.08;3.20;;;;;;;20.54;39.24;100460.55;1901068;74;28076;-69
2021/12/14 08:54:42;;;;;;;5.67;3.35;;;;;;;20.56;39.20;100457.95;1895054;74;28186;-69
2021/12/14 08:57:33;;;;;;;4.92;3.37;;;;;;;20.58;39.08;100461.33;1890207;74;28065;-69
2021/12/14 09:00:26;;;;;;;6.72;3.70;;;;;;;20.60;39.03;100460.64;1882946;74;28145;-69
2021/12/14 09:03:20;;;;;;;5.77;3.60;;;;;;;20.59;38.95;100459.45;1900172;74;28109;-69
2021/12/14 09:06:15;;;;;;;6.43;3.73;;;;;;;20.60;38.96;100469.34;1878481;76;28124;-69
2021/12/14 09:09:07;;;;;;;7.45;3.92;;;;;;;20.59;38.94;100471.22;1908047;74;28159;-69
2021/12/14 09:12:13;;;;;;;9.48;4.45;;;;;;;20.60;38.89;100466.61;1881615;74;28154;-69
2021/12/14 09:15:04;;;;;;;6.53;3.80;;;;;;;20.62;38.85;100474.92;1903738;74;28240;-71
2021/12/14 09:17:54;;;;;;;4.00;3.13;;;;;;;20.59;38.82;100476.67;1900211;74;28062;-68
2021/12/14 09:20:45;;;;;;;5.55;3.33;;;;;;;20.60;38.78;100482.47;1896650;74;28122;-69
2021/12/14 09:23:36;;;;;;;6.97;3.60;;;;;;;20.60;38.66;100477.02;1898090;74;28189;-69
2021/12/14 09:26:27;;;;;;;4.58;3.05;;;;;;;20.63;38.69;100488.88;1900257;74;28240;-68
2021/12/14 09:29:19;;;;;;;6.12;3.60;;;;;;;20.63;38.67;100494.88;1899914;74;28074;-69
2021/12/14 09:32:11;;;;;;;8.07;4.03;;;;;;;20.63;38.63;100492.16;1897304;74;28060;-69
2021/12/14 09:35:01;;;;;;;12.90;10.18;;;;;;;20.63;38.62;100492.16;1892012;74;28025;-69
2021/12/14 09:37:52;;;;;;;6.33;3.70;;;;;;;20.63;38.58;100494.88;1889048;74;28109;-69
2021/12/14 09:40:46;;;;;;;6.00;3.20;;;;;;;20.65;38.52;100494.16;1889008;74;28213;-69
2021/12/14 09:43:36;;;;;;;8.00;3.83;;;;;;;20.62;38.52;100492.67;1887070;74;28151;-68
2021/12/14 09:46:25;;;;;;;7.10;3.65;;;;;;;20.61;38.49;100502.40;1893168;74;28082;-69
2021/12/14 09:49:15;;;;;;;6.80;3.57;;;;;;;20.61;38.49;100507.34;1879430;74;28174;-68
2021/12/14 09:52:06;;;;;;;10.05;4.17;;;;;;;20.61;38.50;100501.89;1899816;74;28065;-69
2021/12/14 09:54:57;;;;;;;8.73;4.00;;;;;;;20.63;38.49;100513.45;1898928;74;28231;-69
2021/12/14 09:57:50;;;;;;;7.40;3.67;;;;;;;20.60;38.48;100509.77;1892364;74;28042;-69
2021/12/14 10:00:47;;;;;;;5.83;3.12;;;;;;;20.61;38.41;100510.08;1880663;74;28118;-68
2021/12/14 10:03:37;;;;;;;5.75;3.45;;;;;;;20.61;38.44;100501.03;1895201;74;28313;-69
2021/12/14 10:06:29;;;;;;;6.37;3.30;;;;;;;20.59;38.43;100497.15;1842774;77;28110;-69
2021/12/14 10:09:20;;;;;;;52.23;48.43;;;;;;;20.59;38.41;100501.24;1832210;77;28390;-69
2021/12/14 10:12:49;;;;;;;8.63;4.12;;;;;;;20.61;38.40;100503.25;1827385;77;28780;-69
2021/12/14 10:15:13;;;;;;;5.20;3.12;;;;;;;20.60;38.34;100502.95;1832842;77;28260;-69
2021/12/14 10:18:04;;;;;;;6.87;4.00;;;;;;;20.61;38.33;100497.79;1829522;77;28211;-69
2021/12/14 10:20:55;;;;;;;7.30;3.95;;;;;;;20.60;38.32;100490.66;1822189;77;28297;-69
2021/12/14 10:23:47;;;;;;;5.87;3.10;;;;;;;20.59;38.29;100494.94;1835208;77;28229;-68
2021/12/14 10:26:39;;;;;;;5.65;3.15;;;;;;;20.58;38.27;100481.80;1838549;77;28272;-69
2021/12/14 10:29:29;;;;;;;5.97;3.33;;;;;;;20.58;38.24;100476.34;1844274;77;28244;-68
2021/12/14 10:32:24;;;;;;;8.70;3.77;;;;;;;20.59;38.27;100482.65;1842815;77;28309;-69
2021/12/14 10:35:37;;;;;;;6.72;3.37;;;;;;;20.60;38.24;100476.16;1838366;76;28277;-69
2021/12/14 10:38:35;;;;;;;4.30;3.12;;;;;;;20.58;38.24;100474.16;1861426;76;28194;-69
2021/12/14 10:44:32;;;;;;;4.85;3.22;;;;;;;20.58;38.27;100476.34;1833558;77;28882;-69
2021/12/14 10:47:24;;;;;;;6.03;3.45;;;;;;;20.55;38.30;100458.16;1844816;76;28367;-69
2021/12/14 10:50:15;;;;;;;4.20;3.05;;;;;;;20.56;38.28;100466.69;1844467;77;28312;-69
2021/12/14 10:53:06;;;;;;;5.75;3.45;;;;;;;20.54;38.28;100466.02;1900399;74;28171;-67
2021/12/14 10:56:04;;;;;;;3.70;2.87;;;;;;;20.54;38.25;100461.92;1824676;77;28230;-69
2021/12/14 10:58:56;;;;;;;5.15;3.27;;;;;;;20.55;38.24;100465.84;1828775;77;28231;-69
2021/12/14 11:01:50;;;;;;;5.97;3.50;;;;;;;20.56;38.22;100463.95;1843572;77;38575;-69
2021/12/14 11:04:40;;;;;;;5.80;3.27;;;;;;;20.56;38.25;100463.41;1843030;77;28166;-69
2021/12/14 11:07:36;;;;;;;7.03;3.50;;;;;;;20.55;38.19;100467.20;1855432;77;28223;-68
2021/12/14 11:10:30;;;;;;;4.80;3.20;;;;;;;20.57;38.14;100467.84;1834629;77;28171;-69
2021/12/14 11:13:18;;;;;;;7.78;3.50;;;;;;;20.55;38.20;100470.45;1834648;77;28277;-70
2021/12/14 11:16:15;;;;;;;6.17;3.33;;;;;;;20.56;38.14;100472.15;1855706;77;28197;-70
2021/12/14 11:19:00;;;;;;;7.13;3.80;;;;;;;20.56;38.18;100468.88;1834232;77;28178;-70
2021/12/14 11:21:49;;;;;;;4.55;3.15;;;;;;;20.57;38.09;100469.21;1855300;76;28273;-70
2021/12/14 11:24:40;;;;;;;4.85;3.10;;;;;;;20.58;38.12;100463.23;1862682;76;28228;-69
2021/12/14 11:27:37;;;;;;;5.70;3.40;;;;;;;20.58;38.07;100458.59;1842184;76;28424;-69
2021/12/14 11:30:28;;;;;;;5.05;3.58;;;;;;;20.58;38.04;100457.78;1847621;76;28266;-69
2021/12/14 11:33:26;;;;;;;6.07;3.57;;;;;;;20.57;38.07;100463.75;1831294;78;28379;-69
2021/12/14 11:36:24;;;;;;;6.70;3.50;;;;;;;20.57;38.07;100455.56;1844765;77;28814;-69
2021/12/14 11:39:24;;;;;;;5.95;3.27;;;;;;;20.57;38.07;100446.52;1844878;77;28174;-69
2021/12/14 11:42:12;;;;;;;5.10;3.30;;;;;;;20.54;38.06;100434.11;1844726;77;28200;-69
2021/12/14 11:45:04;;;;;;;5.33;3.12;;;;;;;20.54;38.07;100434.11;1831231;78;28332;-70
2021/12/14 11:47:58;;;;;;;6.35;3.33;;;;;;;20.55;38.06;100426.77;1833295;77;28271;-69
2021/12/14 11:50:49;;;;;;;4.47;3.00;;;;;;;20.55;38.09;100418.07;1867718;75;28018;-69
2021/12/14 11:53:37;;;;;;;4.17;3.00;;;;;;;20.55;38.04;100408.52;1867888;75;28173;-70
2021/12/14 11:56:28;;;;;;;5.42;3.15;;;;;;;20.57;38.03;100406.95;1883410;75;28228;-69
2021/12/14 11:59:18;;;;;;;6.23;3.47;;;;;;;20.56;38.03;100408.00;1869489;75;28084;-69
2021/12/14 12:02:07;;;;;;;5.65;3.22;;;;;;;20.56;38.05;100395.17;1898420;75;28150;-69
2021/12/14 12:04:57;;;;;;;6.62;3.55;;;;;;;20.55;38.07;100392.14;1858304;75;28295;-70
2021/12/14 12:10:53;;;;;;;5.42;3.12;;;;;;;20.55;37.99;100375.77;1884660;75;28101;-69
2021/12/14 12:13:43;;;;;;;5.78;3.17;;;;;;;20.56;37.99;100377.44;1889258;75;28014;-69
2021/12/14 12:16:31;;;;;;;4.78;3.12;;;;;;;20.56;37.96;100373.34;1875727;75;28228;-68
2021/12/14 12:19:23;;;;;;;6.50;3.65;;;;;;;20.55;37.96;100364.84;1856790;77;28144;-69
2021/12/14 12:22:20;;;;;;;5.55;3.30;;;;;;;20.55;37.95;100362.63;1872116;75;28094;-69
2021/12/14 12:25:12;;;;;;;6.63;3.47;;;;;;;20.57;37.93;100361.39;1867951;75;28009;-69
2021/12/14 12:28:06;;;;;;;13.50;11.73;;;;;;;20.56;37.93;100354.78;1879550;75;28096;-69
2021/12/14 12:31:04;;;;;;;7.33;4.70;;;;;;;20.57;37.91;100366.00;1865762;75;28366;-69
2021/12/14 12:34:09;;;;;;;7.03;5.70;;;;;;;20.56;37.90;100365.15;1879025;75;28025;-68
2021/12/14 12:36:57;;;;;;;6.53;3.87;;;;;;;20.55;37.89;100354.45;1873942;75;28033;-68
2021/12/14 12:39:52;;;;;;;9.90;4.42;;;;;;;20.54;37.92;100353.59;1868073;75;28184;-69
2021/12/14 12:42:41;;;;;;;8.30;5.97;;;;;;;20.55;37.88;100354.45;1872361;75;28168;-69
2021/12/14 12:45:34;;;;;;;6.28;4.05;;;;;;;20.56;37.87;100350.69;1859169;75;28226;-69
2021/12/14 12:48:48;;;;;;;9.47;6.30;;;;;;;20.56;37.82;100341.95;1890254;75;28166;-69
2021/12/14 12:51:56;;;;;;;6.17;5.55;;;;;;;20.57;37.83;100338.19;1903372;74;28013;-70
2021/12/14 12:54:54;;;;;;;15.53;14.27;;;;;;;20.54;37.87;100342.67;1901831;74;28208;-70
2021/12/14 12:57:54;;;;;;;22.07;20.50;;;;;;;20.53;37.88;100338.28;1897914;74;28096;-69
2021/12/14 13:00:47;;;;;;;32.28;30.27;;;;;;;20.53;37.84;100334.19;1895684;74;28165;-68
2021/12/14 13:03:40;;;;;;;70.17;65.83;;;;;;;20.54;37.85;100326.81;1895610;74;28140;-68
2021/12/14 13:06:30;;;;;;;62.43;58.33;;;;;;;20.54;37.84;100331.76;1895294;74;28146;-69
2021/12/14 13:09:18;;;;;;;48.45;45.30;;;;;;;20.55;37.83;100325.78;1900689;74;28168;-68
2021/12/14 13:12:07;;;;;;;58.10;54.45;;;;;;;20.53;37.83;100328.73;1896333;74;28187;-69
2021/12/14 13:14:56;;;;;;;5.55;3.47;;;;;;;20.56;37.81;100326.12;1911898;74;28225;-70
2021/12/14 13:17:45;;;;;;;6.97;3.70;;;;;;;20.56;37.77;100325.57;1885042;75;28158;-69
2021/12/14 13:20:33;;;;;;;6.77;3.70;;;;;;;20.57;37.76;100326.42;1900320;74;28074;-69
2021/12/14 13:23:24;;;;;;;6.53;3.58;;;;;;;20.55;37.74;100311.63;1895357;74;28016;-69
2021/12/14 13:26:34;;;;;;;6.50;3.45;;;;;;;20.55;37.75;100314.87;1891175;74;28123;-69
2021/12/14 13:29:31;;;;;;;8.43;4.33;;;;;;;20.55;37.75;100318.45;1906523;74;28091;-69
2021/12/14 13:32:23;;;;;;;7.35;4.25;;;;;;;20.52;37.82;100309.80;1906208;74;28042;-70
2021/12/14 13:35:21;;;;;;;8.43;5.35;;;;;;;20.53;37.75;100305.53;1901439;74;28137;-70
2021/12/14 13:38:10;;;;;;;7.85;5.30;;;;;;;20.53;37.76;100309.62;1896729;74;28045;-70
2021/12/14 13:41:00;;;;;;;548.88;511.95;;;;;;;20.56;37.73;100311.11;1895390;74;28084;-70
2021/12/14 13:43:49;;;;;;;64.83;60.37;;;;;;;20.53;37.77;100303.31;1895044;74;28314;-68
2021/12/14 13:46:38;;;;;;;30.45;28.30;;;;;;;20.56;37.72;100305.10;1901974;74;28069;-69
2021/12/14 13:49:27;;;;;;;42.17;39.45;;;;;;;20.55;37.73;100304.80;1888132;75;28087;-69
2021/12/14 13:52:18;;;;;;;37.87;35.30;;;;;;;20.56;37.72;100299.64;1879985;75;28082;-69
2021/12/14 13:55:28;;;;;;;74.87;69.95;;;;;;;20.55;37.79;100295.25;1879552;75;28270;-69
2021/12/14 13:58:25;;;;;;;24.32;22.05;;;;;;;20.57;37.77;100289.58;1880590;75;28138;-69
2021/12/14 14:01:15;;;;;;;4.95;3.42;;;;;;;20.51;37.85;100285.75;1884751;75;28758;-69
2021/12/14 14:04:06;;;;;;;6.85;3.75;;;;;;;20.52;37.85;100287.97;1880289;75;28019;-69
2021/12/14 14:06:55;;;;;;;6.47;3.65;;;;;;;20.51;37.87;100281.66;1873589;75;28154;-69
2021/12/14 14:09:43;;;;;;;7.20;3.77;;;;;;;20.48;37.91;100283.97;1891007;75;28071;-69
2021/12/14 14:12:33;;;;;;;6.33;3.60;;;;;;;20.51;37.91;100295.86;1884887;75;28047;-69
2021/12/14 14:15:24;;;;;;;4.63;3.40;;;;;;;20.50;37.91;100296.88;1879669;75;28101;-69
2021/12/14 14:18:14;;;;;;;6.40;3.55;;;;;;;20.51;37.88;100300.77;1879921;75;28885;-69
2021/12/14 14:21:06;;;;;;;5.42;3.35;;;;;;;20.51;37.88;100293.12;1880528;75;28211;-70
2021/12/14 14:23:54;;;;;;;5.97;3.20;;;;;;;20.50;37.88;100295.52;1868918;76;28105;-71
2021/12/14 14:26:43;;;;;;;5.00;3.35;;;;;;;20.51;37.88;100299.40;1900476;75;28031;-70
2021/12/14 14:29:44;;;;;;;5.83;3.47;;;;;;;20.51;37.86;100302.67;1880068;75;28230;-69
2021/12/14 14:32:36;;;;;;;5.90;3.50;;;;;;;20.51;37.85;100304.04;1879869;75;28080;-69
2021/12/14 14:35:22;;;;;;;5.55;3.15;;;;;;;20.50;37.84;100300.98;1883546;75;28157;-69
2021/12/14 14:38:29;;;;;;;5.40;3.33;;;;;;;20.50;37.87;100314.63;1868420;76;28167;-69
2021/12/14 14:41:23;;;;;;;6.60;3.37;;;;;;;20.44;37.70;100308.07;1900942;75;28071;-69
2021/12/14 14:44:14;;;;;;;5.87;3.43;;;;;;;20.44;37.70;100308.07;1873623;75;28113;-70
2021/12/14 14:47:26;;;;;;;7.65;3.90;;;;;;;20.48;37.84;100317.56;1892032;75;28096;-71
2021/12/14 14:50:33;;;;;;;6.25;3.62;;;;;;;20.50;37.83;100320.08;1907689;74;28511;-68
2021/12/14 14:53:24;;;;;;;6.50;3.75;;;;;;;20.45;37.91;100315.74;1905407;74;28099;-68
2021/12/14 14:56:14;;;;;;;9.33;4.45;;;;;;;20.44;37.89;100322.27;1901679;74;28148;-68
2021/12/14 14:59:16;;;;;;;5.87;3.75;;;;;;;20.46;37.91;100333.30;1906497;74;32153;-70
2021/12/14 15:02:07;;;;;;;11.40;10.43;;;;;;;20.48;37.83;100342.13;1906410;74;28136;-69
2021/12/14 15:05:11;;;;;;;6.42;3.65;;;;;;;20.47;37.83;100336.84;1906316;74;28650;-69
2021/12/14 15:08:18;;;;;;;5.22;3.17;;;;;;;20.47;37.84;100339.06;1906241;74;28039;-69
2021/12/14 15:11:17;;;;;;;7.78;3.75;;;;;;;20.47;37.80;100344.52;1904635;74;28156;-69
2021/12/14 15:14:11;;;;;;;5.78;3.45;;;;;;;20.45;37.83;100341.66;1917412;74;28062;-69
2021/12/14 15:17:17;;;;;;;7.20;3.67;;;;;;;20.45;37.85;100347.12;1884519;75;28198;-70
2021/12/14 15:20:08;;;;;;;7.60;3.80;;;;;;;20.45;37.83;100342.52;1906679;74;28297;-69
2021/12/14 15:23:03;;;;;;;6.95;3.80;;;;;;;20.42;37.85;100344.27;1906990;74;28673;-69
2021/12/14 15:25:53;;;;;;;5.47;3.25;;;;;;;20.45;37.82;100339.78;1884814;75;38776;-69
2021/12/14 15:28:44;;;;;;;4.62;3.15;;;;;;;20.46;37.78;100344.22;1901282;74;28204;-69
2021/12/14 15:31:33;;;;;;;5.42;3.35;;;;;;;20.46;37.79;100345.58;1895709;74;28002;-69
2021/12/14 15:34:25;;;;;;;6.13;3.20;;;;;;;20.46;37.79;100350.19;1895352;74;28147;-69
2021/12/14 15:37:45;;;;;;;8.10;4.15;;;;;;;20.45;37.75;100349.34;1895489;74;28124;-69
2021/12/14 15:40:42;;;;;;;8.40;3.95;;;;;;;20.46;37.73;100359.23;1893725;74;28207;-70
2021/12/14 15:43:33;;;;;;;8.25;4.03;;;;;;;20.44;37.79;100363.20;1903755;74;28576;-70
2021/12/14 15:46:24;;;;;;;9.70;4.25;;;;;;;20.42;37.82;100364.73;1898162;74;28121;-70
2021/12/14 15:49:21;;;;;;;7.73;3.73;;;;;;;20.43;37.76;100373.78;1908860;74;28106;-69
2021/12/14 15:52:18;;;;;;;6.13;3.43;;;;;;;20.43;37.73;100371.90;1906704;74;28034;-69
2021/12/14 15:55:07;;;;;;;7.58;3.77;;;;;;;20.44;37.75;100375.48;1906641;74;28052;-69
2021/12/14 15:57:56;;;;;;;10.90;4.58;;;;;;;20.43;37.76;100380.08;1900759;74;28184;-69
2021/12/14 16:00:45;;;;;;;10.40;4.33;;;;;;;20.43;37.74;100380.08;1917147;74;28120;-69
2021/12/14 16:03:33;;;;;;;7.13;3.70;;;;;;;20.43;37.73;100377.36;1895319;74;28105;-69
2021/12/14 16:06:22;;;;;;;10.13;4.08;;;;;;;20.44;37.70;100387.21;1895629;74;28175;-69
2021/12/14 16:09:17;;;;;;;7.07;3.57;;;;;;;20.44;37.73;100389.13;1900376;74;28155;-68
2021/12/14 16:15:14;;;;;;;7.15;3.67;;;;;;;20.42;37.70;100395.30;1871012;74;28086;-68
2021/12/14 16:18:04;;;;;;;6.83;3.50;;;;;;;20.42;37.71;100396.67;1891265;74;28173;-69
2021/12/14 16:20:57;;;;;;;4.85;2.90;;;;;;;20.42;37.71;100393.94;1884741;75;28121;-69
2021/12/14 16:23:46;;;;;;;5.25;3.22;;;;;;;20.42;37.72;100408.40;1900618;74;27986;-69
2021/12/14 16:26:35;;;;;;;8.08;3.75;;;;;;;20.43;37.69;100406.01;1907920;74;28113;-68
2021/12/14 16:29:29;;;;;;;5.45;3.10;;;;;;;20.44;37.67;100409.04;1884688;75;28169;-69
2021/12/14 16:32:20;;;;;;;5.12;3.33;;;;;;;20.41;37.65;100408.09;1905479;74;28078;-69
2021/12/14 16:35:08;;;;;;;5.70;3.17;;;;;;;20.42;37.66;100396.67;1902442;74;28127;-69
2021/12/14 16:38:02;;;;;;;5.03;2.90;;;;;;;20.41;37.70;100402.64;1906615;74;28113;-69
2021/12/14 16:40:52;;;;;;;5.45;3.10;;;;;;;20.42;37.66;100409.77;1906776;74;28599;-69
2021/12/14 16:43:43;;;;;;;4.45;2.98;;;;;;;20.39;37.69;100414.79;1884769;75;28130;-69
2021/12/14 16:46:56;;;;;;;4.17;2.90;;;;;;;20.39;37.72;100418.89;1900954;74;28492;-69
2021/12/14 16:49:47;;;;;;;5.87;3.25;;;;;;;20.38;37.69;100415.30;1917809;74;28210;-69
2021/12/14 16:52:37;;;;;;;6.20;3.37;;;;;;;20.37;37.77;100414.15;1885758;74;28092;-70
2021/12/14 16:55:28;;;;;;;3.87;2.85;;;;;;;20.40;37.73;100424.13;1879944;75;28055;-69
2021/12/14 16:58:19;;;;;;;5.87;3.02;;;;;;;20.38;37.70;100423.48;1901386;75;28058;-69
2021/12/14 17:01:10;;;;;;;6.03;3.30;;;;;;;20.37;37.72;100431.38;1885930;75;28108;-69
2021/12/14 17:04:02;;;;;;;5.72;3.12;;;;;;;20.39;37.71;100432.53;1880716;75;28019;-69
2021/12/14 17:06:53;;;;;;;5.62;2.92;;;;;;;20.38;37.70;100432.19;1879499;75;28013;-69
2021/12/14 17:09:42;;;;;;;4.33;2.83;;;;;;;20.39;37.68;100432.53;1879807;75;28102;-69
2021/12/14 17:12:30;;;;;;;4.72;3.12;;;;;;;20.40;37.70;100435.05;1883867;75;28180;-68
2021/12/14 17:15:26;;;;;;;5.22;3.22;;;;;;;20.40;37.70;100437.78;1868978;76;28190;-69
2021/12/14 17:18:12;;;;;;;3.77;2.87;;;;;;;20.40;37.66;100437.78;1890921;75;28210;-69
2021/12/14 17:21:01;;;;;;;4.75;3.10;;;;;;;20.40;37.64;100436.41;1890927;75;28130;-69
2021/12/14 17:23:56;;;;;;;3.72;2.90;;;;;;;20.38;37.64;100438.50;1885844;75;28128;-68
2021/12/14 17:26:44;;;;;;;4.72;3.05;;;;;;;20.39;37.69;100442.08;1881288;75;38421;-69
2021/12/14 17:29:36;;;;;;;6.30;3.50;;;;;;;20.40;37.65;100443.75;1893998;75;28176;-69
2021/12/14 17:32:28;;;;;;;4.43;2.87;;;;;;;20.40;37.63;100441.87;1891103;75;27998;-69
2021/12/14 17:35:23;;;;;;;4.53;2.90;;;;;;;20.38;37.66;100439.86;1869181;76;28970;-69
2021/12/14 17:38:11;;;;;;;3.43;2.60;;;;;;;20.39;37.64;100449.75;1868913;76;28133;-69
2021/12/14 17:41:00;;;;;;;3.67;2.83;;;;;;;20.40;37.64;100447.84;1899320;75;28164;-67
2021/12/14 17:44:04;;;;;;;3.20;2.70;;;;;;;20.39;37.67;100452.99;1879620;75;28193;-69
2021/12/14 17:47:06;;;;;;;4.37;2.80;;;;;;;20.41;37.62;100449.55;1881266;75;28120;-71
2021/12/14 17:50:00;;;;;;;5.72;3.20;;;;;;;20.38;37.61;100443.11;1887063;75;28099;-69
2021/12/14 17:52:55;;;;;;;4.62;2.90;;;;;;;20.38;37.66;100451.29;1885551;74;28105;-69
2021/12/14 17:55:47;;;;;;;4.17;2.80;;;;;;;20.36;37.67;100447.41;1895589;74;28101;-69
2021/12/14 17:58:40;;;;;;;5.92;3.37;;;;;;;20.36;37.67;100458.32;1891538;74;28179;-69
2021/12/14 18:01:29;;;;;;;5.95;3.20;;;;;;;20.37;37.65;100449.11;1905844;74;28045;-68
2021/12/14 18:04:17;;;;;;;6.05;3.20;;;;;;;20.38;37.64;100453.51;1902541;74;28180;-68
2021/12/14 18:07:09;;;;;;;18.95;14.68;;;;;;;20.36;37.62;100458.32;1906477;74;28181;-68
2021/12/14 18:09:57;;;;;;;14.68;5.72;;;;;;;20.39;37.63;100465.27;1898477;73;28211;-70
2021/12/14 18:12:48;;;;;;;197.80;184.30;;;;;;;20.38;37.56;100453.51;1893212;74;28798;-75
2021/12/14 18:15:38;;;;;;;6.65;3.65;;;;;;;20.27;37.59;100453.20;1899105;74;28197;-68
2021/12/14 18:21:47;;;;;;;7.08;3.70;;;;;;;20.39;37.85;100448.39;1887671;74;28235;-73
2021/12/14 18:24:46;;;;;;;7.85;3.45;;;;;;;20.42;37.98;100452.06;1864448;76;32009;-71
2021/12/14 18:27:40;;;;;;;5.03;3.00;;;;;;;20.46;38.02;100445.19;1734757;79;58646;-71
2021/12/14 18:30:33;;;;;;;6.08;3.20;;;;;;;20.51;37.99;100451.42;1753695;81;28370;-70
2021/12/14 18:33:19;;;;;;;7.62;3.58;;;;;;;20.54;37.98;100446.39;1768647;80;28521;-69
2021/12/14 18:36:07;;;;;;;6.53;3.25;;;;;;;20.58;37.92;100449.59;1753931;81;28406;-68
2021/12/14 18:39:02;;;;;;;6.60;3.02;;;;;;;20.61;37.83;100443.20;1766520;80;28399;-70
2021/12/14 18:41:53;;;;;;;5.20;3.10;;;;;;;20.65;37.81;100449.94;1762007;80;28521;-72
2021/12/14 18:44:44;;;;;;;8.10;3.83;;;;;;;20.69;37.77;100449.03;1784327;80;28331;-71
2021/12/14 18:50:34;;;;;;;6.17;2.98;;;;;;;20.72;37.68;100452.74;1757830;81;28492;-71
2021/12/14 18:53:30;;;;;;;5.13;3.03;;;;;;;20.74;37.64;100457.48;1753390;80;28386;-72
2021/12/14 18:56:17;;;;;;;8.68;3.72;;;;;;;20.75;37.60;100466.52;1782264;80;28367;-71
2021/12/14 18:59:24;;;;;;;5.93;3.30;;;;;;;20.77;37.58;100468.52;1782613;80;28917;-71
2021/12/14 19:02:15;;;;;;;8.73;3.90;;;;;;;20.79;37.53;100460.97;1786135;80;28343;-70
2021/12/14 19:05:18;;;;;;;8.05;3.92;;;;;;;20.77;37.54;100470.70;1769209;80;28343;-70
2021/12/14 19:08:11;;;;;;;7.42;4.00;;;;;;;20.83;37.51;100471.81;1767067;80;28430;-69
2021/12/14 19:11:04;;;;;;;5.97;3.80;;;;;;;20.80;37.52;100470.83;1784449;80;28371;-70
2021/12/14 19:13:58;;;;;;;7.15;4.17;;;;;;;20.74;37.58;100471.13;1783890;80;28384;-72
2021/12/14 19:16:50;;;;;;;6.95;3.60;;;;;;;20.77;37.44;100477.53;1783440;80;28359;-72
2021/12/14 19:19:40;;;;;;;6.83;3.40;;;;;;;20.78;37.37;100468.83;1769683;80;28443;-71
2021/12/14 19:22:41;;;;;;;;;;;;;;;;;;;;;
2021/12/14 19:25:24;;;;;;;4.63;2.80;;;;;;;20.75;37.29;100486.99;1784363;80;28399;-71
2021/12/14 19:28:18;;;;;;;3.67;2.92;;;;;;;20.74;37.25;100486.66;1771459;80;38767;-71
2021/12/14 19:31:25;;;;;;;3.35;2.72;;;;;;;20.74;37.23;100484.78;1767449;80;28369;-71
2021/12/14 19:34:08;;;;;;;3.27;2.55;;;;;;;20.75;37.20;100490.55;1782321;80;28872;-71
2021/12/14 19:36:56;;;;;;;5.85;3.30;;;;;;;20.74;37.17;100490.75;1786565;80;28513;-71
2021/12/14 19:39:48;;;;;;;4.90;3.10;;;;;;;20.74;37.12;100493.48;1814494;78;28341;-70
2021/12/14 19:42:36;;;;;;;5.67;3.43;;;;;;;20.76;37.06;100497.70;1784364;80;28896;-70
2021/12/14 19:45:28;;;;;;;4.08;3.08;;;;;;;20.78;37.00;100498.86;1783958;80;28374;-70
2021/12/14 19:48:25;;;;;;;6.63;3.30;;;;;;;20.76;36.97;100496.34;1783576;80;28399;-70
2021/12/14 19:51:20;;;;;;;5.07;3.00;;;;;;;20.76;36.96;100496.86;1784745;80;28483;-73
2021/12/14 19:54:13;;;;;;;4.60;2.98;;;;;;;20.73;37.03;100489.91;1814501;78;28414;-73
2021/12/14 19:57:06;;;;;;;5.22;2.95;;;;;;;20.74;37.02;100492.12;1791265;78;28453;-72
2021/12/14 20:00:03;;;;;;;8.93;3.77;;;;;;;20.74;37.00;100493.48;1794176;78;28324;-74
2021/12/14 20:02:56;;;;;;;5.85;3.10;;;;;;;20.75;36.98;100494.64;1795630;78;28367;-72
2021/12/14 20:05:48;;;;;;;5.92;3.30;;;;;;;20.76;37.04;100500.44;1816403;78;28253;-73
2021/12/14 20:08:46;;;;;;;5.17;3.12;;;;;;;20.75;37.04;100496.00;1739767;81;28443;-71
2021/12/14 20:11:41;;;;;;;7.08;3.45;;;;;;;20.77;37.02;100491.19;1782247;80;28358;-71
2021/12/14 20:14:33;;;;;;;6.47;3.40;;;;;;;20.78;37.04;100487.94;1781317;78;28392;-72
2021/12/14 20:17:37;;;;;;;7.03;3.52;;;;;;;20.78;37.05;100490.67;1782127;80;28425;-72
2021/12/14 20:20:34;;;;;;;6.40;3.27;;;;;;;20.78;37.05;100478.38;1776442;80;28440;-75
2021/12/14 20:23:30;;;;;;;6.75;3.25;;;;;;;20.78;37.05;100478.38;1773817;80;28411;-75
2021/12/14 20:26:22;;;;;;;4.72;3.15;;;;;;;20.79;37.06;100482.81;1758993;80;28406;-75
2021/12/14 20:29:16;;;;;;;7.10;3.50;;;;;;;20.79;37.07;100488.28;1782384;80;28423;-75
2021/12/14 20:32:08;;;;;;;4.47;2.92;;;;;;;20.80;37.09;100483.12;1778745;80;28317;-74
2021/12/14 20:34:59;;;;;;;5.62;3.30;;;;;;;20.80;37.06;100487.22;1777721;80;28365;-74
2021/12/14 20:37:54;;;;;;;5.27;3.03;;;;;;;20.79;37.08;100482.30;1748017;81;28442;-74
2021/12/14 20:40:43;;;;;;;8.58;3.47;;;;;;;20.79;37.08;100482.81;1754158;81;28468;-74
2021/12/14 20:43:51;;;;;;;7.23;3.30;;;;;;;20.79;37.10;100480.94;1786503;78;28379;-74
2021/12/14 20:46:41;;;;;;;5.15;3.12;;;;;;;20.82;37.08;100486.52;1797334;78;28294;-75
2021/12/14 20:49:33;;;;;;;5.00;3.10;;;;;;;20.79;37.06;100483.67;1746135;81;28592;-75
2021/12/14 20:52:29;;;;;;;6.15;3.02;;;;;;;20.80;37.12;100483.97;1756672;81;28430;-74
2021/12/14 20:55:19;;;;;;;6.22;3.42;;;;;;;20.80;37.14;100482.61;1752485;81;28887;-76
2021/12/14 20:58:12;;;;;;;5.67;3.17;;;;;;;20.82;37.13;100481.88;1753335;81;28470;-74
2021/12/14 21:01:04;;;;;;;4.55;3.08;;;;;;;20.81;37.16;100476.63;1750746;81;28540;-74
2021/12/14 21:03:56;;;;;;;4.15;2.58;;;;;;;20.81;37.15;100488.92;1796556;78;28341;-74
2021/12/14 21:06:49;;;;;;;6.12;3.55;;;;;;;20.82;37.16;100487.34;1812719;78;28831;-74
2021/12/14 21:09:43;;;;;;;3.98;2.75;;;;;;;20.83;37.14;100484.09;1753685;81;28432;-74
2021/12/14 21:12:33;;;;;;;8.40;3.52;;;;;;;20.84;37.14;100483.06;1775041;79;28434;-74
2021/12/14 21:15:24;;;;;;;4.37;2.80;;;;;;;20.83;37.13;100474.02;1772502;80;28391;-74
2021/12/14 21:18:13;;;;;;;8.85;3.80;;;;;;;20.84;37.13;100481.16;1786006;80;28365;-74
2021/12/14 21:21:05;;;;;;;5.10;3.05;;;;;;;20.85;37.16;100484.73;1785790;80;28367;-74
2021/12/14 21:23:53;;;;;;;5.33;3.10;;;;;;;20.85;37.14;100484.22;1770320;80;28401;-73